sensor_id;sensor_type;location;lat;lon;timestamp;temperature;humidity
2002;DHT22;1003;48.002;7.788;2024-01-15T00:00:11;-3.00;99.90
2002;DHT22;1003;48.002;7.788;2024-01-15T00:02:39;-3.00;99.90
2002;DHT22;1003;48.002;7.788;2024-01-15T00:05:06;-3.00;99.90
2002;DHT22;1003;48.002;7.788;2024-01-15T00:07:34;-3.00;99.90
2002;DHT22;1003;48.002;7.788;2024-01-15T00:10:01;-2.90;99.90
2002;DHT22;1003;48.002;7.788;2024-01-15T00:12:28;-3.00;99.90
2002;DHT22;1003;48.002;7.788;2024-01-15T00:14:55;-2.90;99.90
2002;DHT22;1003;48.002;7.788;2024-01-15T00:17:24;-2.90;99.90
2002;DHT22;1003;48.002;7.788;2024-01-15T00:19:51;-3.00;99.90
2002;DHT22;1003;48.002;7.788;2024-01-15T00:22:18;-3.00;99.90
2002;DHT22;1003;48.002;7.788;2024-01-15T00:24:45;-2.90;99.90
2002;DHT22;1003;48.002;7.788;2024-01-15T00:27:12;-2.90;99.90
2002;DHT22;1003;48.002;7.788;2024-01-15T00:29:39;-2.90;99.90
2002;DHT22;1003;48.002;7.788;2024-01-15T00:32:06;-2.90;99.90
2002;DHT22;1003;48.002;7.788;2024-01-15T00:34:34;-2.90;99.90
2002;DHT22;1003;48.002;7.788;2024-01-15T00:37:01;-2.80;99.90
2002;DHT22;1003;48.002;7.788;2024-01-15T00:39:29;-2.80;99.90
2002;DHT22;1003;48.002;7.788;2024-01-15T00:41:56;-2.90;99.90
2002;DHT22;1003;48.002;7.788;2024-01-15T00:44:23;-2.90;99.90
2002;DHT22;1003;48.002;7.788;2024-01-15T00:46:50;-3.00;99.90
2002;DHT22;1003;48.002;7.788;2024-01-15T00:49:17;-2.90;99.90
2002;DHT22;1003;48.002;7.788;2024-01-15T00:51:47;-3.00;99.90
2002;DHT22;1003;48.002;7.788;2024-01-15T00:54:14;-3.10;99.90
2002;DHT22;1003;48.002;7.788;2024-01-15T00:56:41;-3.10;99.90
2002;DHT22;1003;48.002;7.788;2024-01-15T00:59:08;-3.20;99.90
2002;DHT22;1003;48.002;7.788;2024-01-15T01:01:36;-3.40;99.90
2002;DHT22;1003;48.002;7.788;2024-01-15T01:04:03;-3.40;99.90
2002;DHT22;1003;48.002;7.788;2024-01-15T01:06:30;-3.30;99.90
2002;DHT22;1003;48.002;7.788;2024-01-15T01:08:59;-3.20;99.90
2002;DHT22;1003;48.002;7.788;2024-01-15T01:11:26;-3.30;99.90
2002;DHT22;1003;48.002;7.788;2024-01-15T01:13:53;-3.30;99.90
2002;DHT22;1003;48.002;7.788;2024-01-15T01:16:20;-3.40;99.90
2002;DHT22;1003;48.002;7.788;2024-01-15T01:18:47;-3.50;99.90
2002;DHT22;1003;48.002;7.788;2024-01-15T01:21:13;-3.50;99.90
2002;DHT22;1003;48.002;7.788;2024-01-15T01:23:40;-3.50;99.90
2002;DHT22;1003;48.002;7.788;2024-01-15T01:26:09;-3.50;99.90
2002;DHT22;1003;48.002;7.788;2024-01-15T01:28:37;-3.40;99.90
2002;DHT22;1003;48.002;7.788;2024-01-15T01:31:04;-3.40;99.90
2002;DHT22;1003;48.002;7.788;2024-01-15T01:33:31;-3.40;99.90
2002;DHT22;1003;48.002;7.788;2024-01-15T01:35:58;-3.40;99.90
2002;DHT22;1003;48.002;7.788;2024-01-15T01:38:25;-3.40;99.90
2002;DHT22;1003;48.002;7.788;2024-01-15T01:40:52;-3.30;99.90
2002;DHT22;1003;48.002;7.788;2024-01-15T01:43:20;-3.20;99.90
2002;DHT22;1003;48.002;7.788;2024-01-15T01:45:47;-3.20;99.90
2002;DHT22;1003;48.002;7.788;2024-01-15T01:48:14;-3.20;99.90
2002;DHT22;1003;48.002;7.788;2024-01-15T01:50:41;-3.20;99.90
2002;DHT22;1003;48.002;7.788;2024-01-15T01:53:08;-3.30;99.90
2002;DHT22;1003;48.002;7.788;2024-01-15T01:55:36;-3.20;99.90
2002;DHT22;1003;48.002;7.788;2024-01-15T01:58:05;-3.10;99.90
2002;DHT22;1003;48.002;7.788;2024-01-15T02:00:35;-3.10;99.90
2002;DHT22;1003;48.002;7.788;2024-01-15T02:03:03;-3.10;99.90
2002;DHT22;1003;48.002;7.788;2024-01-15T02:05:31;-3.00;99.90
2002;DHT22;1003;48.002;7.788;2024-01-15T02:07:58;-2.90;99.90
2002;DHT22;1003;48.002;7.788;2024-01-15T02:10:25;-2.70;99.90
2002;DHT22;1003;48.002;7.788;2024-01-15T02:12:52;-2.80;99.90
2002;DHT22;1003;48.002;7.788;2024-01-15T02:15:19;-2.80;99.90
2002;DHT22;1003;48.002;7.788;2024-01-15T02:18:06;-2.80;99.90
2002;DHT22;1003;48.002;7.788;2024-01-15T02:20:34;-2.80;99.90
2002;DHT22;1003;48.002;7.788;2024-01-15T02:23:07;-2.80;99.90
2002;DHT22;1003;48.002;7.788;2024-01-15T02:25:36;-2.80;99.90
2002;DHT22;1003;48.002;7.788;2024-01-15T02:28:05;-2.80;99.90
2002;DHT22;1003;48.002;7.788;2024-01-15T02:30:37;-2.70;99.90
2002;DHT22;1003;48.002;7.788;2024-01-15T02:33:05;-2.80;99.90
2002;DHT22;1003;48.002;7.788;2024-01-15T02:35:32;-2.70;99.90
2002;DHT22;1003;48.002;7.788;2024-01-15T02:38:03;-2.70;99.90
2002;DHT22;1003;48.002;7.788;2024-01-15T02:40:31;-2.60;99.90
2002;DHT22;1003;48.002;7.788;2024-01-15T02:42:58;-2.50;99.90
2002;DHT22;1003;48.002;7.788;2024-01-15T02:45:26;-2.50;99.90
2002;DHT22;1003;48.002;7.788;2024-01-15T02:47:53;-2.50;99.90
2002;DHT22;1003;48.002;7.788;2024-01-15T02:50:20;-2.50;99.90
2002;DHT22;1003;48.002;7.788;2024-01-15T02:52:48;-2.40;99.90
2002;DHT22;1003;48.002;7.788;2024-01-15T02:55:16;-2.30;99.90
2002;DHT22;1003;48.002;7.788;2024-01-15T02:57:43;-2.30;99.90
2002;DHT22;1003;48.002;7.788;2024-01-15T03:00:11;-2.20;99.90
2002;DHT22;1003;48.002;7.788;2024-01-15T03:02:39;-2.20;99.90
2002;DHT22;1003;48.002;7.788;2024-01-15T03:05:09;-2.10;99.90
2002;DHT22;1003;48.002;7.788;2024-01-15T03:07:36;-2.10;99.90
2002;DHT22;1003;48.002;7.788;2024-01-15T03:10:05;-2.00;99.90
2002;DHT22;1003;48.002;7.788;2024-01-15T03:12:34;-2.00;99.90
2002;DHT22;1003;48.002;7.788;2024-01-15T03:15:01;-2.00;99.90
2002;DHT22;1003;48.002;7.788;2024-01-15T03:17:28;-2.00;99.90
2002;DHT22;1003;48.002;7.788;2024-01-15T03:19:55;-2.00;99.90
2002;DHT22;1003;48.002;7.788;2024-01-15T03:22:22;-2.00;99.90
2002;DHT22;1003;48.002;7.788;2024-01-15T03:24:49;-1.80;99.90
2002;DHT22;1003;48.002;7.788;2024-01-15T03:27:16;-1.80;99.90
2002;DHT22;1003;48.002;7.788;2024-01-15T03:29:44;-1.80;99.90
2002;DHT22;1003;48.002;7.788;2024-01-15T03:32:11;-1.80;99.90
2002;DHT22;1003;48.002;7.788;2024-01-15T03:34:38;-1.80;99.90
2002;DHT22;1003;48.002;7.788;2024-01-15T03:37:05;-1.80;99.90
2002;DHT22;1003;48.002;7.788;2024-01-15T03:39:32;-1.70;99.90
2002;DHT22;1003;48.002;7.788;2024-01-15T03:41:59;-1.60;99.90
2002;DHT22;1003;48.002;7.788;2024-01-15T03:44:26;-1.60;99.90
2002;DHT22;1003;48.002;7.788;2024-01-15T03:46:54;-1.60;99.90
2002;DHT22;1003;48.002;7.788;2024-01-15T03:49:21;-1.60;99.90
2002;DHT22;1003;48.002;7.788;2024-01-15T03:51:48;-1.60;99.90
2002;DHT22;1003;48.002;7.788;2024-01-15T03:54:15;-1.60;99.90
2002;DHT22;1003;48.002;7.788;2024-01-15T03:56:42;-1.50;99.90
2002;DHT22;1003;48.002;7.788;2024-01-15T03:59:09;-1.50;99.90
2002;DHT22;1003;48.002;7.788;2024-01-15T04:01:36;-1.40;99.90
2002;DHT22;1003;48.002;7.788;2024-01-15T04:04:04;-1.40;99.90
2002;DHT22;1003;48.002;7.788;2024-01-15T04:06:31;-1.40;99.90
2002;DHT22;1003;48.002;7.788;2024-01-15T04:08:58;-1.40;99.90
2002;DHT22;1003;48.002;7.788;2024-01-15T04:11:26;-1.40;99.90
2002;DHT22;1003;48.002;7.788;2024-01-15T04:13:53;-1.40;99.90
2002;DHT22;1003;48.002;7.788;2024-01-15T04:16:20;-1.40;99.90
2002;DHT22;1003;48.002;7.788;2024-01-15T04:18:47;-1.30;99.90
2002;DHT22;1003;48.002;7.788;2024-01-15T04:21:17;-1.20;99.90
2002;DHT22;1003;48.002;7.788;2024-01-15T04:23:44;-1.20;99.90
2002;DHT22;1003;48.002;7.788;2024-01-15T04:26:10;-1.20;99.90
2002;DHT22;1003;48.002;7.788;2024-01-15T04:28:37;-1.30;99.90
2002;DHT22;1003;48.002;7.788;2024-01-15T04:31:04;-1.20;99.90
2002;DHT22;1003;48.002;7.788;2024-01-15T04:33:31;-1.20;99.90
2002;DHT22;1003;48.002;7.788;2024-01-15T04:36:01;-1.20;99.90
2002;DHT22;1003;48.002;7.788;2024-01-15T04:38:30;-1.50;99.90
2002;DHT22;1003;48.002;7.788;2024-01-15T04:40:58;-1.70;99.90
2002;DHT22;1003;48.002;7.788;2024-01-15T04:43:25;-1.70;99.90
2002;DHT22;1003;48.002;7.788;2024-01-15T04:45:52;-1.80;99.90
2002;DHT22;1003;48.002;7.788;2024-01-15T04:48:19;-1.80;99.90
2002;DHT22;1003;48.002;7.788;2024-01-15T04:50:45;-1.70;99.90
2002;DHT22;1003;48.002;7.788;2024-01-15T04:53:13;-1.70;99.90
2002;DHT22;1003;48.002;7.788;2024-01-15T04:55:41;-1.80;99.90
2002;DHT22;1003;48.002;7.788;2024-01-15T04:58:09;-1.80;99.90
2002;DHT22;1003;48.002;7.788;2024-01-15T05:00:36;-1.80;99.90
2002;DHT22;1003;48.002;7.788;2024-01-15T05:03:03;-1.90;99.90
2002;DHT22;1003;48.002;7.788;2024-01-15T05:05:31;-1.80;99.90
2002;DHT22;1003;48.002;7.788;2024-01-15T05:07:58;-1.80;99.90
2002;DHT22;1003;48.002;7.788;2024-01-15T05:10:24;-1.80;99.90
2002;DHT22;1003;48.002;7.788;2024-01-15T05:12:53;-1.80;99.90
2002;DHT22;1003;48.002;7.788;2024-01-15T05:15:20;-1.70;99.90
2002;DHT22;1003;48.002;7.788;2024-01-15T05:17:46;-1.70;99.90
2002;DHT22;1003;48.002;7.788;2024-01-15T05:20:13;-1.60;99.90
2002;DHT22;1003;48.002;7.788;2024-01-15T05:22:40;-1.50;99.90
2002;DHT22;1003;48.002;7.788;2024-01-15T05:25:07;-1.40;99.90
2002;DHT22;1003;48.002;7.788;2024-01-15T05:27:34;-1.40;99.90
2002;DHT22;1003;48.002;7.788;2024-01-15T05:30:03;-1.40;99.90
2002;DHT22;1003;48.002;7.788;2024-01-15T05:32:31;-1.40;99.90
2002;DHT22;1003;48.002;7.788;2024-01-15T05:34:58;-1.40;99.90
2002;DHT22;1003;48.002;7.788;2024-01-15T05:37:26;-1.40;99.90
2002;DHT22;1003;48.002;7.788;2024-01-15T05:39:52;-1.30;99.90
2002;DHT22;1003;48.002;7.788;2024-01-15T05:42:19;-1.20;99.90
2002;DHT22;1003;48.002;7.788;2024-01-15T05:44:46;-1.10;99.90
2002;DHT22;1003;48.002;7.788;2024-01-15T05:47:15;-1.10;99.90
2002;DHT22;1003;48.002;7.788;2024-01-15T05:49:41;-1.10;99.90
2002;DHT22;1003;48.002;7.788;2024-01-15T05:52:08;-1.10;99.90
2002;DHT22;1003;48.002;7.788;2024-01-15T05:54:35;-1.20;99.90
2002;DHT22;1003;48.002;7.788;2024-01-15T05:57:03;-1.20;99.90
2002;DHT22;1003;48.002;7.788;2024-01-15T05:59:31;-1.10;99.90
2002;DHT22;1003;48.002;7.788;2024-01-15T06:01:59;-1.10;99.90
2002;DHT22;1003;48.002;7.788;2024-01-15T06:04:27;-1.10;99.90
2002;DHT22;1003;48.002;7.788;2024-01-15T06:06:54;-1.10;99.90
2002;DHT22;1003;48.002;7.788;2024-01-15T06:09:21;-1.10;99.90
2002;DHT22;1003;48.002;7.788;2024-01-15T06:11:48;-1.10;99.90
2002;DHT22;1003;48.002;7.788;2024-01-15T06:14:15;-1.10;99.90
2002;DHT22;1003;48.002;7.788;2024-01-15T06:16:42;-1.10;99.90
2002;DHT22;1003;48.002;7.788;2024-01-15T06:19:09;-1.10;99.90
2002;DHT22;1003;48.002;7.788;2024-01-15T06:21:36;-1.10;99.90
2002;DHT22;1003;48.002;7.788;2024-01-15T06:24:03;-1.00;99.90
2002;DHT22;1003;48.002;7.788;2024-01-15T06:26:31;-1.00;99.90
2002;DHT22;1003;48.002;7.788;2024-01-15T06:28:57;-1.00;99.90
2002;DHT22;1003;48.002;7.788;2024-01-15T06:31:24;-1.00;99.90
2002;DHT22;1003;48.002;7.788;2024-01-15T06:33:51;-0.80;99.90
2002;DHT22;1003;48.002;7.788;2024-01-15T06:36:18;-0.80;99.90
2002;DHT22;1003;48.002;7.788;2024-01-15T06:38:46;-0.90;99.90
2002;DHT22;1003;48.002;7.788;2024-01-15T06:41:15;-0.80;99.90
2002;DHT22;1003;48.002;7.788;2024-01-15T06:43:46;-0.80;99.90
2002;DHT22;1003;48.002;7.788;2024-01-15T06:46:19;-0.80;99.90
2002;DHT22;1003;48.002;7.788;2024-01-15T06:48:47;-0.80;99.90
2002;DHT22;1003;48.002;7.788;2024-01-15T06:51:15;-0.60;99.90
2002;DHT22;1003;48.002;7.788;2024-01-15T06:53:43;-0.50;99.90
2002;DHT22;1003;48.002;7.788;2024-01-15T06:56:11;-0.50;99.90
2002;DHT22;1003;48.002;7.788;2024-01-15T06:58:38;-0.40;99.90
2002;DHT22;1003;48.002;7.788;2024-01-15T07:01:05;-0.40;99.90
2002;DHT22;1003;48.002;7.788;2024-01-15T07:03:33;-0.30;99.90
2002;DHT22;1003;48.002;7.788;2024-01-15T07:06:00;-0.30;99.90
2002;DHT22;1003;48.002;7.788;2024-01-15T07:08:27;-0.30;99.90
2002;DHT22;1003;48.002;7.788;2024-01-15T07:10:54;-0.40;99.90
2002;DHT22;1003;48.002;7.788;2024-01-15T07:13:22;-0.40;99.90
2002;DHT22;1003;48.002;7.788;2024-01-15T07:15:49;-0.40;99.90
2002;DHT22;1003;48.002;7.788;2024-01-15T07:18:16;-0.40;99.90
2002;DHT22;1003;48.002;7.788;2024-01-15T07:20:43;-0.20;99.90
2002;DHT22;1003;48.002;7.788;2024-01-15T07:23:10;-0.30;99.90
2002;DHT22;1003;48.002;7.788;2024-01-15T07:25:37;-0.30;99.90
2002;DHT22;1003;48.002;7.788;2024-01-15T07:28:05;-0.30;99.90
2002;DHT22;1003;48.002;7.788;2024-01-15T07:30:33;-0.20;99.90
2002;DHT22;1003;48.002;7.788;2024-01-15T07:33:00;-0.20;99.90
2002;DHT22;1003;48.002;7.788;2024-01-15T07:35:29;-0.20;99.90
2002;DHT22;1003;48.002;7.788;2024-01-15T07:37:56;-0.10;99.90
2002;DHT22;1003;48.002;7.788;2024-01-15T07:40:24;-0.10;99.90
2002;DHT22;1003;48.002;7.788;2024-01-15T07:42:51;-0.10;99.90
2002;DHT22;1003;48.002;7.788;2024-01-15T07:45:18;-0.10;99.90
2002;DHT22;1003;48.002;7.788;2024-01-15T07:47:46;-0.10;99.90
2002;DHT22;1003;48.002;7.788;2024-01-15T07:50:14;-0.10;99.90
2002;DHT22;1003;48.002;7.788;2024-01-15T07:52:41;-0.10;99.90
2002;DHT22;1003;48.002;7.788;2024-01-15T07:55:08;0.00;99.90
2002;DHT22;1003;48.002;7.788;2024-01-15T07:57:36;0.00;99.90
2002;DHT22;1003;48.002;7.788;2024-01-15T08:00:03;0.00;99.90
2002;DHT22;1003;48.002;7.788;2024-01-15T08:02:31;0.10;99.90
2002;DHT22;1003;48.002;7.788;2024-01-15T08:04:59;0.10;99.90
2002;DHT22;1003;48.002;7.788;2024-01-15T08:07:26;0.20;99.90
2002;DHT22;1003;48.002;7.788;2024-01-15T08:12:45;0.20;99.90
2002;DHT22;1003;48.002;7.788;2024-01-15T08:15:13;0.30;99.90
2002;DHT22;1003;48.002;7.788;2024-01-15T08:17:40;0.40;99.90
2002;DHT22;1003;48.002;7.788;2024-01-15T08:20:09;0.40;99.90
2002;DHT22;1003;48.002;7.788;2024-01-15T08:22:36;0.50;99.90
2002;DHT22;1003;48.002;7.788;2024-01-15T08:25:03;0.50;99.90
2002;DHT22;1003;48.002;7.788;2024-01-15T08:27:37;0.60;99.90
2002;DHT22;1003;48.002;7.788;2024-01-15T08:30:04;0.60;99.90
2002;DHT22;1003;48.002;7.788;2024-01-15T08:32:35;0.70;99.90
2002;DHT22;1003;48.002;7.788;2024-01-15T08:35:09;0.60;99.90
2002;DHT22;1003;48.002;7.788;2024-01-15T08:37:37;0.80;99.90
2002;DHT22;1003;48.002;7.788;2024-01-15T08:40:05;0.90;99.90
2002;DHT22;1003;48.002;7.788;2024-01-15T08:42:32;0.70;99.90
2002;DHT22;1003;48.002;7.788;2024-01-15T08:44:59;0.80;99.90
2002;DHT22;1003;48.002;7.788;2024-01-15T08:52:39;0.80;99.90
2002;DHT22;1003;48.002;7.788;2024-01-15T08:55:07;0.90;99.90
2002;DHT22;1003;48.002;7.788;2024-01-15T08:57:34;0.90;99.90
2002;DHT22;1003;48.002;7.788;2024-01-15T09:02:37;1.10;99.90
2002;DHT22;1003;48.002;7.788;2024-01-15T09:05:04;1.10;99.90
2002;DHT22;1003;48.002;7.788;2024-01-15T09:07:32;1.00;99.90
2002;DHT22;1003;48.002;7.788;2024-01-15T09:10:00;1.10;99.90
2002;DHT22;1003;48.002;7.788;2024-01-15T09:12:28;1.10;99.90
2002;DHT22;1003;48.002;7.788;2024-01-15T09:14:55;1.20;99.90
2002;DHT22;1003;48.002;7.788;2024-01-15T09:17:22;1.30;99.90
2002;DHT22;1003;48.002;7.788;2024-01-15T09:19:49;1.30;99.90
2002;DHT22;1003;48.002;7.788;2024-01-15T09:22:16;1.20;99.90
2002;DHT22;1003;48.002;7.788;2024-01-15T09:24:44;1.40;99.90
2002;DHT22;1003;48.002;7.788;2024-01-15T09:27:12;1.60;99.90
2002;DHT22;1003;48.002;7.788;2024-01-15T09:29:39;1.70;99.90
2002;DHT22;1003;48.002;7.788;2024-01-15T09:32:08;1.60;99.90
2002;DHT22;1003;48.002;7.788;2024-01-15T09:34:35;1.70;99.90
2002;DHT22;1003;48.002;7.788;2024-01-15T09:37:48;1.80;99.90
2002;DHT22;1003;48.002;7.788;2024-01-15T09:40:38;1.90;99.90
2002;DHT22;1003;48.002;7.788;2024-01-15T09:43:11;2.00;99.90
2002;DHT22;1003;48.002;7.788;2024-01-15T09:45:56;2.20;99.90
2002;DHT22;1003;48.002;7.788;2024-01-15T09:48:27;2.10;99.90
2002;DHT22;1003;48.002;7.788;2024-01-15T09:50:54;2.10;99.90
2002;DHT22;1003;48.002;7.788;2024-01-15T09:53:22;2.20;99.90
2002;DHT22;1003;48.002;7.788;2024-01-15T09:55:50;2.40;99.90
2002;DHT22;1003;48.002;7.788;2024-01-15T09:58:20;2.40;99.90
2002;DHT22;1003;48.002;7.788;2024-01-15T10:00:48;2.40;99.90
2002;DHT22;1003;48.002;7.788;2024-01-15T10:03:16;2.60;99.90
2002;DHT22;1003;48.002;7.788;2024-01-15T10:05:43;2.50;99.90
2002;DHT22;1003;48.002;7.788;2024-01-15T10:08:11;2.50;99.90
2002;DHT22;1003;48.002;7.788;2024-01-15T10:10:38;2.60;99.90
2002;DHT22;1003;48.002;7.788;2024-01-15T10:13:05;2.70;99.90
2002;DHT22;1003;48.002;7.788;2024-01-15T10:15:35;2.70;99.90
2002;DHT22;1003;48.002;7.788;2024-01-15T10:18:05;2.50;99.90
2002;DHT22;1003;48.002;7.788;2024-01-15T10:20:32;2.60;99.90
2002;DHT22;1003;48.002;7.788;2024-01-15T10:22:59;2.40;99.90
2002;DHT22;1003;48.002;7.788;2024-01-15T10:28:04;2.50;99.90
2002;DHT22;1003;48.002;7.788;2024-01-15T10:30:42;2.40;99.90
2002;DHT22;1003;48.002;7.788;2024-01-15T10:33:09;2.40;99.90
2002;DHT22;1003;48.002;7.788;2024-01-15T10:35:41;2.40;99.90
2002;DHT22;1003;48.002;7.788;2024-01-15T10:38:08;2.40;99.90
2002;DHT22;1003;48.002;7.788;2024-01-15T10:40:35;2.40;99.90
2002;DHT22;1003;48.002;7.788;2024-01-15T10:43:04;2.20;99.90
2002;DHT22;1003;48.002;7.788;2024-01-15T10:45:30;2.40;99.90
2002;DHT22;1003;48.002;7.788;2024-01-15T10:55:56;2.20;99.90
2002;DHT22;1003;48.002;7.788;2024-01-15T10:58:27;2.30;99.90
2002;DHT22;1003;48.002;7.788;2024-01-15T11:00:58;2.30;99.90
2002;DHT22;1003;48.002;7.788;2024-01-15T11:03:27;2.20;99.90
2002;DHT22;1003;48.002;7.788;2024-01-15T11:05:54;2.20;99.90
2002;DHT22;1003;48.002;7.788;2024-01-15T11:08:21;2.20;99.90
2002;DHT22;1003;48.002;7.788;2024-01-15T11:10:51;2.10;99.90
2002;DHT22;1003;48.002;7.788;2024-01-15T11:13:22;2.10;99.90
2002;DHT22;1003;48.002;7.788;2024-01-15T11:26:35;2.30;99.90
2002;DHT22;1003;48.002;7.788;2024-01-15T11:29:06;2.40;99.90
2002;DHT22;1003;48.002;7.788;2024-01-15T11:34:58;2.30;99.90
2002;DHT22;1003;48.002;7.788;2024-01-15T11:37:28;2.30;99.90
2002;DHT22;1003;48.002;7.788;2024-01-15T11:40:21;2.50;99.90
2002;DHT22;1003;48.002;7.788;2024-01-15T11:51:09;2.50;99.90
2002;DHT22;1003;48.002;7.788;2024-01-15T11:56:49;2.30;99.90
2002;DHT22;1003;48.002;7.788;2024-01-15T11:59:16;2.50;99.90
2002;DHT22;1003;48.002;7.788;2024-01-15T12:01:43;2.40;99.90
2002;DHT22;1003;48.002;7.788;2024-01-15T12:04:10;2.40;99.90
2002;DHT22;1003;48.002;7.788;2024-01-15T12:06:42;2.50;99.90
2002;DHT22;1003;48.002;7.788;2024-01-15T12:09:09;2.60;99.90
2002;DHT22;1003;48.002;7.788;2024-01-15T12:11:36;2.50;99.90
2002;DHT22;1003;48.002;7.788;2024-01-15T12:14:09;2.60;99.90
2002;DHT22;1003;48.002;7.788;2024-01-15T12:16:36;2.70;99.90
2002;DHT22;1003;48.002;7.788;2024-01-15T12:31:34;2.70;99.90
2002;DHT22;1003;48.002;7.788;2024-01-15T12:34:05;2.80;99.90
2002;DHT22;1003;48.002;7.788;2024-01-15T12:36:33;2.70;99.90
2002;DHT22;1003;48.002;7.788;2024-01-15T12:46:43;3.00;99.90
2002;DHT22;1003;48.002;7.788;2024-01-15T12:49:10;2.90;99.90
2002;DHT22;1003;48.002;7.788;2024-01-15T12:51:37;2.90;99.90
2002;DHT22;1003;48.002;7.788;2024-01-15T12:54:04;3.00;99.90
2002;DHT22;1003;48.002;7.788;2024-01-15T12:56:31;2.90;99.90
2002;DHT22;1003;48.002;7.788;2024-01-15T12:58:58;2.80;99.90
2002;DHT22;1003;48.002;7.788;2024-01-15T13:01:25;2.90;99.90
2002;DHT22;1003;48.002;7.788;2024-01-15T13:03:53;2.70;99.90
2002;DHT22;1003;48.002;7.788;2024-01-15T13:06:20;2.70;99.90
2002;DHT22;1003;48.002;7.788;2024-01-15T13:08:47;2.70;99.90
2002;DHT22;1003;48.002;7.788;2024-01-15T13:11:14;2.80;99.90
2002;DHT22;1003;48.002;7.788;2024-01-15T13:13:41;2.80;99.90
2002;DHT22;1003;48.002;7.788;2024-01-15T13:16:08;2.80;99.90
2002;DHT22;1003;48.002;7.788;2024-01-15T13:18:35;2.90;99.90
2002;DHT22;1003;48.002;7.788;2024-01-15T13:21:03;2.90;99.90
2002;DHT22;1003;48.002;7.788;2024-01-15T13:23:30;2.80;99.90
2002;DHT22;1003;48.002;7.788;2024-01-15T13:25:57;2.80;99.90
2002;DHT22;1003;48.002;7.788;2024-01-15T13:28:24;2.80;99.90
2002;DHT22;1003;48.002;7.788;2024-01-15T13:30:51;2.90;99.90
2002;DHT22;1003;48.002;7.788;2024-01-15T13:33:19;2.80;99.90
2002;DHT22;1003;48.002;7.788;2024-01-15T13:35:46;2.70;99.90
2002;DHT22;1003;48.002;7.788;2024-01-15T13:38:16;2.70;99.90
2002;DHT22;1003;48.002;7.788;2024-01-15T13:40:43;2.70;99.90
2002;DHT22;1003;48.002;7.788;2024-01-15T13:43:11;2.60;99.90
2002;DHT22;1003;48.002;7.788;2024-01-15T13:45:39;2.40;99.90
2002;DHT22;1003;48.002;7.788;2024-01-15T13:48:07;2.50;99.90
2002;DHT22;1003;48.002;7.788;2024-01-15T13:50:34;2.60;99.90
2002;DHT22;1003;48.002;7.788;2024-01-15T13:53:02;2.40;99.90
2002;DHT22;1003;48.002;7.788;2024-01-15T13:55:32;2.30;99.90
2002;DHT22;1003;48.002;7.788;2024-01-15T13:57:59;2.30;99.90
2002;DHT22;1003;48.002;7.788;2024-01-15T14:00:25;2.30;99.90
2002;DHT22;1003;48.002;7.788;2024-01-15T14:02:52;2.30;99.90
2002;DHT22;1003;48.002;7.788;2024-01-15T14:05:19;2.30;99.90
2002;DHT22;1003;48.002;7.788;2024-01-15T14:07:46;2.20;99.90
2002;DHT22;1003;48.002;7.788;2024-01-15T14:10:13;2.20;99.90
2002;DHT22;1003;48.002;7.788;2024-01-15T14:12:42;2.00;99.90
2002;DHT22;1003;48.002;7.788;2024-01-15T14:15:09;2.10;99.90
2002;DHT22;1003;48.002;7.788;2024-01-15T14:17:37;2.00;99.90
2002;DHT22;1003;48.002;7.788;2024-01-15T14:22:54;1.90;99.90
2002;DHT22;1003;48.002;7.788;2024-01-15T14:25:21;2.00;99.90
2002;DHT22;1003;48.002;7.788;2024-01-15T14:27:51;2.10;99.90
2002;DHT22;1003;48.002;7.788;2024-01-15T14:30:17;2.10;99.90
2002;DHT22;1003;48.002;7.788;2024-01-15T14:32:44;1.90;99.90
2002;DHT22;1003;48.002;7.788;2024-01-15T14:35:11;1.80;99.90
2002;DHT22;1003;48.002;7.788;2024-01-15T14:37:41;2.00;99.90
2002;DHT22;1003;48.002;7.788;2024-01-15T14:54:20;2.00;99.90
2002;DHT22;1003;48.002;7.788;2024-01-15T14:56:49;1.90;99.90
2002;DHT22;1003;48.002;7.788;2024-01-15T14:59:21;2.00;99.90
2002;DHT22;1003;48.002;7.788;2024-01-15T15:02:08;2.00;99.90
2002;DHT22;1003;48.002;7.788;2024-01-15T15:04:44;1.80;99.90
2002;DHT22;1003;48.002;7.788;2024-01-15T15:07:29;1.90;99.90
2002;DHT22;1003;48.002;7.788;2024-01-15T15:15:00;2.00;99.90
2002;DHT22;1003;48.002;7.788;2024-01-15T15:17:27;1.70;99.90
2002;DHT22;1003;48.002;7.788;2024-01-15T15:19:54;1.80;99.90
2002;DHT22;1003;48.002;7.788;2024-01-15T15:22:21;1.70;99.90
2002;DHT22;1003;48.002;7.788;2024-01-15T15:24:48;1.90;99.90
2002;DHT22;1003;48.002;7.788;2024-01-15T15:27:15;1.50;99.90
2002;DHT22;1003;48.002;7.788;2024-01-15T15:29:42;1.70;99.90
2002;DHT22;1003;48.002;7.788;2024-01-15T15:32:10;1.60;99.90
2002;DHT22;1003;48.002;7.788;2024-01-15T15:34:38;1.60;99.90
2002;DHT22;1003;48.002;7.788;2024-01-15T15:37:05;1.70;99.90
2002;DHT22;1003;48.002;7.788;2024-01-15T15:39:32;1.70;99.90
2002;DHT22;1003;48.002;7.788;2024-01-15T15:41:59;1.60;99.90
2002;DHT22;1003;48.002;7.788;2024-01-15T15:44:26;1.50;99.90
2002;DHT22;1003;48.002;7.788;2024-01-15T15:46:53;1.40;99.90
2002;DHT22;1003;48.002;7.788;2024-01-15T15:49:21;1.50;99.90
2002;DHT22;1003;48.002;7.788;2024-01-15T15:51:48;1.50;99.90
2002;DHT22;1003;48.002;7.788;2024-01-15T15:54:15;1.50;99.90
2002;DHT22;1003;48.002;7.788;2024-01-15T15:56:42;1.50;99.90
2002;DHT22;1003;48.002;7.788;2024-01-15T15:59:13;1.40;99.90
2002;DHT22;1003;48.002;7.788;2024-01-15T16:01:40;1.40;99.90
2002;DHT22;1003;48.002;7.788;2024-01-15T16:04:07;1.20;99.90
2002;DHT22;1003;48.002;7.788;2024-01-15T16:06:35;1.40;99.90
2002;DHT22;1003;48.002;7.788;2024-01-15T16:09:02;1.30;99.90
2002;DHT22;1003;48.002;7.788;2024-01-15T16:11:29;1.20;99.90
2002;DHT22;1003;48.002;7.788;2024-01-15T16:13:57;1.20;99.90
2002;DHT22;1003;48.002;7.788;2024-01-15T16:16:24;1.10;99.90
2002;DHT22;1003;48.002;7.788;2024-01-15T16:18:51;1.10;99.90
2002;DHT22;1003;48.002;7.788;2024-01-15T16:21:17;1.10;99.90
2002;DHT22;1003;48.002;7.788;2024-01-15T16:23:46;1.00;99.90
2002;DHT22;1003;48.002;7.788;2024-01-15T16:26:13;1.00;99.90
2002;DHT22;1003;48.002;7.788;2024-01-15T16:28:45;1.00;99.90
2002;DHT22;1003;48.002;7.788;2024-01-15T16:37:38;1.00;99.90
2002;DHT22;1003;48.002;7.788;2024-01-15T16:43:25;1.00;99.90
2002;DHT22;1003;48.002;7.788;2024-01-15T16:45:52;1.00;99.90
2002;DHT22;1003;48.002;7.788;2024-01-15T16:48:19;1.00;99.90
2002;DHT22;1003;48.002;7.788;2024-01-15T16:54:01;1.10;99.90
2002;DHT22;1003;48.002;7.788;2024-01-15T16:56:40;1.00;99.90
2002;DHT22;1003;48.002;7.788;2024-01-15T16:59:12;1.00;99.90
2002;DHT22;1003;48.002;7.788;2024-01-15T17:01:40;0.90;99.90
2002;DHT22;1003;48.002;7.788;2024-01-15T17:15:36;0.60;99.90
2002;DHT22;1003;48.002;7.788;2024-01-15T17:18:04;0.50;99.90
2002;DHT22;1003;48.002;7.788;2024-01-15T17:20:32;0.40;99.90
2002;DHT22;1003;48.002;7.788;2024-01-15T17:22:59;0.30;99.90
2002;DHT22;1003;48.002;7.788;2024-01-15T17:25:26;0.30;99.90
2002;DHT22;1003;48.002;7.788;2024-01-15T17:27:53;0.20;99.90
2002;DHT22;1003;48.002;7.788;2024-01-15T17:30:23;0.30;99.90
2002;DHT22;1003;48.002;7.788;2024-01-15T17:32:51;0.20;99.90
2002;DHT22;1003;48.002;7.788;2024-01-15T17:35:19;0.20;99.90
2002;DHT22;1003;48.002;7.788;2024-01-15T17:40:49;0.10;99.90
2002;DHT22;1003;48.002;7.788;2024-01-15T17:43:17;0.00;99.90
2002;DHT22;1003;48.002;7.788;2024-01-15T17:45:49;0.00;99.90
2002;DHT22;1003;48.002;7.788;2024-01-15T17:48:20;0.00;99.90
2002;DHT22;1003;48.002;7.788;2024-01-15T17:50:48;-0.10;99.90
2002;DHT22;1003;48.002;7.788;2024-01-15T18:04:28;-0.50;99.90
2002;DHT22;1003;48.002;7.788;2024-01-15T18:06:55;-0.50;99.90
2002;DHT22;1003;48.002;7.788;2024-01-15T18:09:22;-0.60;99.90
2002;DHT22;1003;48.002;7.788;2024-01-15T18:15:30;-1.00;99.90
2002;DHT22;1003;48.002;7.788;2024-01-15T18:17:57;-1.10;99.90
2002;DHT22;1003;48.002;7.788;2024-01-15T18:23:43;-1.40;99.90
2002;DHT22;1003;48.002;7.788;2024-01-15T18:26:10;-1.60;99.90
2002;DHT22;1003;48.002;7.788;2024-01-15T18:28:37;-1.70;99.90